sensor_id;sensor_type;location;lat;lon;timestamp;P1;durP1;ratioP1;P2;durP2;ratioP2
80278;SDS011;70683;52.492;13.416;2023-08-20T00:02:01;23.30;;;16.80;;
80278;SDS011;70683;52.492;13.416;2023-08-20T00:04:29;18.92;;;16.93;;
80278;SDS011;70683;52.492;13.416;2023-08-20T00:06:59;18.50;;;16.65;;
80278;SDS011;70683;52.492;13.416;2023-08-20T00:09:26;20.12;;;16.95;;
80278;SDS011;70683;52.492;13.416;2023-08-20T00:11:52;18.32;;;16.15;;
80278;SDS011;70683;52.492;13.416;2023-08-20T00:14:19;21.25;;;17.55;;
80278;SDS011;70683;52.492;13.416;2023-08-20T00:16:46;19.92;;;17.55;;
80278;SDS011;70683;52.492;13.416;2023-08-20T00:19:13;19.02;;;16.65;;
80278;SDS011;70683;52.492;13.416;2023-08-20T00:21:41;19.95;;;16.73;;
80278;SDS011;70683;52.492;13.416;2023-08-20T00:24:10;25.40;;;17.00;;
80278;SDS011;70683;52.492;13.416;2023-08-20T00:26:38;19.30;;;16.80;;
80278;SDS011;70683;52.492;13.416;2023-08-20T00:29:05;18.90;;;16.65;;
80278;SDS011;70683;52.492;13.416;2023-08-20T00:31:31;21.82;;;16.67;;
80278;SDS011;70683;52.492;13.416;2023-08-20T00:33:58;24.27;;;17.07;;
80278;SDS011;70683;52.492;13.416;2023-08-20T00:36:25;20.57;;;16.85;;
80278;SDS011;70683;52.492;13.416;2023-08-20T00:38:51;19.23;;;14.47;;
80278;SDS011;70683;52.492;13.416;2023-08-20T00:41:18;17.40;;;15.50;;
80278;SDS011;70683;52.492;13.416;2023-08-20T00:43:44;17.55;;;15.45;;
80278;SDS011;70683;52.492;13.416;2023-08-20T00:46:11;16.77;;;14.90;;
80278;SDS011;70683;52.492;13.416;2023-08-20T00:48:38;16.95;;;14.78;;
80278;SDS011;70683;52.492;13.416;2023-08-20T00:51:04;16.02;;;13.98;;
80278;SDS011;70683;52.492;13.416;2023-08-20T00:53:31;17.30;;;15.25;;
80278;SDS011;70683;52.492;13.416;2023-08-20T00:55:58;16.85;;;15.03;;
80278;SDS011;70683;52.492;13.416;2023-08-20T00:58:24;18.75;;;15.13;;
80278;SDS011;70683;52.492;13.416;2023-08-20T01:00:51;17.92;;;16.12;;
80278;SDS011;70683;52.492;13.416;2023-08-20T01:03:18;16.95;;;15.23;;
80278;SDS011;70683;52.492;13.416;2023-08-20T01:05:46;17.10;;;15.48;;
80278;SDS011;70683;52.492;13.416;2023-08-20T01:08:23;18.98;;;17.00;;
80278;SDS011;70683;52.492;13.416;2023-08-20T01:10:55;23.98;;;18.85;;
80278;SDS011;70683;52.492;13.416;2023-08-20T01:13:39;18.98;;;15.25;;
80278;SDS011;70683;52.492;13.416;2023-08-20T01:16:05;16.55;;;14.05;;
80278;SDS011;70683;52.492;13.416;2023-08-20T01:18:32;17.40;;;13.83;;
80278;SDS011;70683;52.492;13.416;2023-08-20T01:21:01;18.85;;;13.62;;
80278;SDS011;70683;52.492;13.416;2023-08-20T01:26:16;16.50;;;13.78;;
80278;SDS011;70683;52.492;13.416;2023-08-20T01:28:47;15.78;;;13.15;;
80278;SDS011;70683;52.492;13.416;2023-08-20T01:31:14;17.55;;;13.98;;
80278;SDS011;70683;52.492;13.416;2023-08-20T01:33:41;17.30;;;14.43;;
80278;SDS011;70683;52.492;13.416;2023-08-20T01:36:08;19.70;;;14.33;;
80278;SDS011;70683;52.492;13.416;2023-08-20T01:38:35;17.82;;;14.20;;
80278;SDS011;70683;52.492;13.416;2023-08-20T01:41:03;15.58;;;13.70;;
80278;SDS011;70683;52.492;13.416;2023-08-20T01:43:30;19.87;;;14.87;;
80278;SDS011;70683;52.492;13.416;2023-08-20T01:45:57;17.23;;;13.58;;
80278;SDS011;70683;52.492;13.416;2023-08-20T01:48:23;22.45;;;15.20;;
80278;SDS011;70683;52.492;13.416;2023-08-20T01:50:50;17.50;;;13.85;;
80278;SDS011;70683;52.492;13.416;2023-08-20T01:53:16;21.27;;;14.50;;
80278;SDS011;70683;52.492;13.416;2023-08-20T01:55:43;16.27;;;14.45;;
80278;SDS011;70683;52.492;13.416;2023-08-20T01:58:10;18.73;;;14.30;;
80278;SDS011;70683;52.492;13.416;2023-08-20T02:00:37;15.78;;;14.18;;
80278;SDS011;70683;52.492;13.416;2023-08-20T02:03:03;19.52;;;13.80;;
80278;SDS011;70683;52.492;13.416;2023-08-20T02:05:30;16.45;;;13.98;;
80278;SDS011;70683;52.492;13.416;2023-08-20T02:07:57;21.20;;;13.62;;
80278;SDS011;70683;52.492;13.416;2023-08-20T02:10:23;20.00;;;14.13;;
80278;SDS011;70683;52.492;13.416;2023-08-20T02:12:50;15.23;;;13.55;;
80278;SDS011;70683;52.492;13.416;2023-08-20T02:15:17;17.90;;;14.03;;
80278;SDS011;70683;52.492;13.416;2023-08-20T02:17:43;18.60;;;14.25;;
80278;SDS011;70683;52.492;13.416;2023-08-20T02:20:10;17.70;;;14.35;;
80278;SDS011;70683;52.492;13.416;2023-08-20T02:22:37;18.32;;;14.03;;
80278;SDS011;70683;52.492;13.416;2023-08-20T02:25:03;17.65;;;14.78;;
80278;SDS011;70683;52.492;13.416;2023-08-20T02:27:31;16.55;;;14.58;;
80278;SDS011;70683;52.492;13.416;2023-08-20T02:29:57;15.48;;;13.20;;
80278;SDS011;70683;52.492;13.416;2023-08-20T02:32:25;17.90;;;14.80;;
80278;SDS011;70683;52.492;13.416;2023-08-20T02:34:51;16.35;;;14.23;;
80278;SDS011;70683;52.492;13.416;2023-08-20T02:37:19;20.43;;;14.25;;
80278;SDS011;70683;52.492;13.416;2023-08-20T02:39:46;18.10;;;13.80;;
80278;SDS011;70683;52.492;13.416;2023-08-20T02:42:13;16.70;;;14.25;;
80278;SDS011;70683;52.492;13.416;2023-08-20T02:44:39;15.18;;;13.65;;
80278;SDS011;70683;52.492;13.416;2023-08-20T02:47:06;19.40;;;14.80;;
80278;SDS011;70683;52.492;13.416;2023-08-20T02:49:32;15.55;;;13.68;;
80278;SDS011;70683;52.492;13.416;2023-08-20T02:51:59;15.93;;;13.90;;
80278;SDS011;70683;52.492;13.416;2023-08-20T02:54:26;18.20;;;13.90;;
80278;SDS011;70683;52.492;13.416;2023-08-20T02:56:54;17.82;;;13.72;;
80278;SDS011;70683;52.492;13.416;2023-08-20T02:59:21;19.73;;;14.55;;
80278;SDS011;70683;52.492;13.416;2023-08-20T03:01:47;18.17;;;13.85;;
80278;SDS011;70683;52.492;13.416;2023-08-20T03:04:14;16.00;;;12.70;;
80278;SDS011;70683;52.492;13.416;2023-08-20T03:06:41;18.27;;;12.40;;
80278;SDS011;70683;52.492;13.416;2023-08-20T03:09:08;15.95;;;12.70;;
80278;SDS011;70683;52.492;13.416;2023-08-20T03:11:35;18.40;;;12.78;;
80278;SDS011;70683;52.492;13.416;2023-08-20T03:14:02;23.07;;;13.18;;
80278;SDS011;70683;52.492;13.416;2023-08-20T03:16:29;18.45;;;12.45;;
80278;SDS011;70683;52.492;13.416;2023-08-20T03:18:55;16.95;;;12.65;;
80278;SDS011;70683;52.492;13.416;2023-08-20T03:21:22;18.57;;;13.00;;
80278;SDS011;70683;52.492;13.416;2023-08-20T03:23:49;18.35;;;12.33;;
80278;SDS011;70683;52.492;13.416;2023-08-20T03:26:16;17.82;;;12.95;;
80278;SDS011;70683;52.492;13.416;2023-08-20T03:28:42;16.20;;;12.23;;
80278;SDS011;70683;52.492;13.416;2023-08-20T03:31:09;18.32;;;12.23;;
80278;SDS011;70683;52.492;13.416;2023-08-20T03:33:35;15.30;;;12.25;;
80278;SDS011;70683;52.492;13.416;2023-08-20T03:36:02;21.80;;;11.80;;
80278;SDS011;70683;52.492;13.416;2023-08-20T03:38:29;15.03;;;12.00;;
80278;SDS011;70683;52.492;13.416;2023-08-20T03:40:56;16.00;;;12.10;;
80278;SDS011;70683;52.492;13.416;2023-08-20T03:43:23;16.40;;;13.58;;
80278;SDS011;70683;52.492;13.416;2023-08-20T03:45:50;18.12;;;13.32;;
80278;SDS011;70683;52.492;13.416;2023-08-20T03:48:17;18.20;;;12.70;;
80278;SDS011;70683;52.492;13.416;2023-08-20T03:50:44;13.62;;;11.95;;
80278;SDS011;70683;52.492;13.416;2023-08-20T03:53:10;19.17;;;12.43;;
80278;SDS011;70683;52.492;13.416;2023-08-20T03:55:37;17.70;;;12.30;;
80278;SDS011;70683;52.492;13.416;2023-08-20T03:58:04;16.05;;;13.00;;
80278;SDS011;70683;52.492;13.416;2023-08-20T04:00:30;13.98;;;12.47;;
80278;SDS011;70683;52.492;13.416;2023-08-20T04:02:57;17.80;;;13.32;;
80278;SDS011;70683;52.492;13.416;2023-08-20T04:05:23;18.27;;;13.35;;
80278;SDS011;70683;52.492;13.416;2023-08-20T04:07:50;17.62;;;12.80;;
80278;SDS011;70683;52.492;13.416;2023-08-20T04:10:17;21.60;;;13.90;;
80278;SDS011;70683;52.492;13.416;2023-08-20T04:12:43;17.52;;;14.13;;
80278;SDS011;70683;52.492;13.416;2023-08-20T04:15:10;17.45;;;13.30;;
80278;SDS011;70683;52.492;13.416;2023-08-20T04:17:37;18.17;;;13.40;;
80278;SDS011;70683;52.492;13.416;2023-08-20T04:20:04;22.35;;;13.28;;
80278;SDS011;70683;52.492;13.416;2023-08-20T04:22:33;17.10;;;13.60;;
80278;SDS011;70683;52.492;13.416;2023-08-20T04:25:00;16.65;;;12.93;;
80278;SDS011;70683;52.492;13.416;2023-08-20T04:27:26;18.82;;;14.50;;
80278;SDS011;70683;52.492;13.416;2023-08-20T04:29:53;19.75;;;13.40;;
80278;SDS011;70683;52.492;13.416;2023-08-20T04:32:20;17.30;;;12.80;;
80278;SDS011;70683;52.492;13.416;2023-08-20T04:34:47;14.98;;;13.48;;
80278;SDS011;70683;52.492;13.416;2023-08-20T04:37:15;19.82;;;14.07;;
80278;SDS011;70683;52.492;13.416;2023-08-20T04:39:42;15.13;;;13.45;;
80278;SDS011;70683;52.492;13.416;2023-08-20T04:42:08;17.77;;;14.18;;
80278;SDS011;70683;52.492;13.416;2023-08-20T04:44:35;20.23;;;13.85;;
80278;SDS011;70683;52.492;13.416;2023-08-20T04:47:01;19.02;;;14.33;;
80278;SDS011;70683;52.492;13.416;2023-08-20T04:49:28;20.17;;;14.13;;
80278;SDS011;70683;52.492;13.416;2023-08-20T04:51:55;16.73;;;14.25;;
80278;SDS011;70683;52.492;13.416;2023-08-20T04:54:22;16.15;;;13.08;;
80278;SDS011;70683;52.492;13.416;2023-08-20T04:56:49;20.17;;;13.45;;
80278;SDS011;70683;52.492;13.416;2023-08-20T04:59:15;18.07;;;13.85;;
80278;SDS011;70683;52.492;13.416;2023-08-20T05:01:42;19.90;;;14.10;;
80278;SDS011;70683;52.492;13.416;2023-08-20T05:04:08;15.10;;;13.20;;
80278;SDS011;70683;52.492;13.416;2023-08-20T05:06:35;21.15;;;15.03;;
80278;SDS011;70683;52.492;13.416;2023-08-20T05:09:02;18.73;;;15.75;;
80278;SDS011;70683;52.492;13.416;2023-08-20T05:11:29;20.57;;;15.25;;
80278;SDS011;70683;52.492;13.416;2023-08-20T05:13:58;22.37;;;15.15;;
80278;SDS011;70683;52.492;13.416;2023-08-20T05:16:25;25.60;;;15.95;;
80278;SDS011;70683;52.492;13.416;2023-08-20T05:18:51;20.77;;;15.30;;
80278;SDS011;70683;52.492;13.416;2023-08-20T05:21:18;18.40;;;14.55;;
80278;SDS011;70683;52.492;13.416;2023-08-20T05:23:45;17.45;;;15.32;;
80278;SDS011;70683;52.492;13.416;2023-08-20T05:26:11;17.05;;;14.60;;
80278;SDS011;70683;52.492;13.416;2023-08-20T05:28:38;21.07;;;15.80;;
80278;SDS011;70683;52.492;13.416;2023-08-20T05:31:04;17.30;;;15.00;;
80278;SDS011;70683;52.492;13.416;2023-08-20T05:33:31;20.62;;;15.28;;
80278;SDS011;70683;52.492;13.416;2023-08-20T05:35:59;20.12;;;15.75;;
80278;SDS011;70683;52.492;13.416;2023-08-20T05:38:26;20.05;;;15.98;;
80278;SDS011;70683;52.492;13.416;2023-08-20T05:40:52;21.05;;;16.35;;
80278;SDS011;70683;52.492;13.416;2023-08-20T05:43:19;20.80;;;16.05;;
80278;SDS011;70683;52.492;13.416;2023-08-20T05:45:45;19.32;;;13.93;;
80278;SDS011;70683;52.492;13.416;2023-08-20T05:48:12;22.62;;;15.58;;
80278;SDS011;70683;52.492;13.416;2023-08-20T05:50:39;22.37;;;16.48;;
80278;SDS011;70683;52.492;13.416;2023-08-20T05:53:05;18.60;;;15.58;;
80278;SDS011;70683;52.492;13.416;2023-08-20T05:55:32;18.82;;;15.78;;
80278;SDS011;70683;52.492;13.416;2023-08-20T05:57:58;19.05;;;14.00;;
80278;SDS011;70683;52.492;13.416;2023-08-20T06:00:25;20.57;;;16.57;;
80278;SDS011;70683;52.492;13.416;2023-08-20T06:02:52;19.98;;;16.05;;
80278;SDS011;70683;52.492;13.416;2023-08-20T06:05:18;22.75;;;16.37;;
80278;SDS011;70683;52.492;13.416;2023-08-20T06:07:45;19.10;;;15.72;;
80278;SDS011;70683;52.492;13.416;2023-08-20T06:10:12;17.00;;;15.08;;
80278;SDS011;70683;52.492;13.416;2023-08-20T06:12:38;20.60;;;15.60;;
80278;SDS011;70683;52.492;13.416;2023-08-20T06:15:05;19.02;;;15.93;;
80278;SDS011;70683;52.492;13.416;2023-08-20T06:17:34;18.95;;;15.15;;
80278;SDS011;70683;52.492;13.416;2023-08-20T06:20:00;18.45;;;15.40;;
80278;SDS011;70683;52.492;13.416;2023-08-20T06:22:29;19.52;;;16.07;;
80278;SDS011;70683;52.492;13.416;2023-08-20T06:24:57;19.25;;;16.55;;
80278;SDS011;70683;52.492;13.416;2023-08-20T06:27:23;18.10;;;15.83;;
80278;SDS011;70683;52.492;13.416;2023-08-20T06:29:50;22.20;;;16.02;;
80278;SDS011;70683;52.492;13.416;2023-08-20T06:32:17;19.32;;;15.18;;
80278;SDS011;70683;52.492;13.416;2023-08-20T06:34:43;22.58;;;17.00;;
80278;SDS011;70683;52.492;13.416;2023-08-20T06:37:10;20.50;;;16.62;;
80278;SDS011;70683;52.492;13.416;2023-08-20T06:39:36;26.42;;;16.73;;
80278;SDS011;70683;52.492;13.416;2023-08-20T06:42:03;19.85;;;15.85;;
80278;SDS011;70683;52.492;13.416;2023-08-20T06:44:30;21.45;;;16.15;;
80278;SDS011;70683;52.492;13.416;2023-08-20T06:46:56;20.72;;;15.70;;
80278;SDS011;70683;52.492;13.416;2023-08-20T06:49:23;23.32;;;16.02;;
80278;SDS011;70683;52.492;13.416;2023-08-20T06:51:50;21.20;;;16.60;;
80278;SDS011;70683;52.492;13.416;2023-08-20T06:54:16;18.15;;;15.23;;
80278;SDS011;70683;52.492;13.416;2023-08-20T06:56:43;18.17;;;15.48;;
80278;SDS011;70683;52.492;13.416;2023-08-20T06:59:10;17.98;;;15.88;;
80278;SDS011;70683;52.492;13.416;2023-08-20T07:01:37;21.17;;;16.07;;
80278;SDS011;70683;52.492;13.416;2023-08-20T07:04:03;22.00;;;16.95;;
80278;SDS011;70683;52.492;13.416;2023-08-20T07:06:31;22.90;;;17.23;;
80278;SDS011;70683;52.492;13.416;2023-08-20T07:08:57;21.37;;;15.98;;
80278;SDS011;70683;52.492;13.416;2023-08-20T07:11:24;21.27;;;16.37;;
80278;SDS011;70683;52.492;13.416;2023-08-20T07:13:50;20.40;;;16.23;;
80278;SDS011;70683;52.492;13.416;2023-08-20T07:16:17;18.23;;;16.12;;
80278;SDS011;70683;52.492;13.416;2023-08-20T07:18:45;23.20;;;16.55;;
80278;SDS011;70683;52.492;13.416;2023-08-20T07:21:11;18.17;;;14.98;;
80278;SDS011;70683;52.492;13.416;2023-08-20T07:23:38;19.25;;;14.05;;
80278;SDS011;70683;52.492;13.416;2023-08-20T07:26:06;16.27;;;14.20;;
80278;SDS011;70683;52.492;13.416;2023-08-20T07:28:35;23.50;;;14.93;;
80278;SDS011;70683;52.492;13.416;2023-08-20T07:31:07;16.17;;;13.93;;
80278;SDS011;70683;52.492;13.416;2023-08-20T07:33:34;16.25;;;13.53;;
80278;SDS011;70683;52.492;13.416;2023-08-20T07:36:00;18.25;;;15.00;;
80278;SDS011;70683;52.492;13.416;2023-08-20T07:38:27;18.25;;;14.65;;
80278;SDS011;70683;52.492;13.416;2023-08-20T07:40:53;19.82;;;15.68;;
80278;SDS011;70683;52.492;13.416;2023-08-20T07:43:20;19.42;;;13.62;;
80278;SDS011;70683;52.492;13.416;2023-08-20T07:45:47;19.25;;;14.00;;
80278;SDS011;70683;52.492;13.416;2023-08-20T07:48:14;17.05;;;13.65;;
80278;SDS011;70683;52.492;13.416;2023-08-20T07:50:41;22.70;;;15.38;;
80278;SDS011;70683;52.492;13.416;2023-08-20T07:53:07;17.50;;;14.03;;
80278;SDS011;70683;52.492;13.416;2023-08-20T07:55:34;20.12;;;14.18;;
80278;SDS011;70683;52.492;13.416;2023-08-20T07:58:00;18.45;;;14.75;;
80278;SDS011;70683;52.492;13.416;2023-08-20T08:00:27;17.20;;;13.62;;
80278;SDS011;70683;52.492;13.416;2023-08-20T08:02:54;19.25;;;13.93;;
80278;SDS011;70683;52.492;13.416;2023-08-20T08:05:20;19.20;;;14.35;;
80278;SDS011;70683;52.492;13.416;2023-08-20T08:07:47;18.45;;;13.98;;
80278;SDS011;70683;52.492;13.416;2023-08-20T08:10:13;16.95;;;13.60;;
80278;SDS011;70683;52.492;13.416;2023-08-20T08:12:40;17.25;;;13.10;;
80278;SDS011;70683;52.492;13.416;2023-08-20T08:15:06;15.83;;;12.85;;
80278;SDS011;70683;52.492;13.416;2023-08-20T08:17:33;16.62;;;13.00;;
80278;SDS011;70683;52.492;13.416;2023-08-20T08:20:00;17.67;;;12.23;;
80278;SDS011;70683;52.492;13.416;2023-08-20T08:22:26;14.20;;;11.48;;
80278;SDS011;70683;52.492;13.416;2023-08-20T08:24:53;15.65;;;11.83;;
80278;SDS011;70683;52.492;13.416;2023-08-20T08:27:20;21.07;;;12.23;;
80278;SDS011;70683;52.492;13.416;2023-08-20T08:29:46;18.37;;;11.25;;
80278;SDS011;70683;52.492;13.416;2023-08-20T08:32:13;19.20;;;11.33;;
80278;SDS011;70683;52.492;13.416;2023-08-20T08:34:40;12.43;;;10.85;;
80278;SDS011;70683;52.492;13.416;2023-08-20T08:37:06;14.23;;;10.48;;
80278;SDS011;70683;52.492;13.416;2023-08-20T08:39:33;16.15;;;10.10;;
80278;SDS011;70683;52.492;13.416;2023-08-20T08:42:00;12.33;;;9.83;;
80278;SDS011;70683;52.492;13.416;2023-08-20T08:44:31;12.53;;;9.55;;
80278;SDS011;70683;52.492;13.416;2023-08-20T08:46:59;10.78;;;9.50;;
80278;SDS011;70683;52.492;13.416;2023-08-20T08:49:27;14.20;;;9.55;;
80278;SDS011;70683;52.492;13.416;2023-08-20T08:51:56;12.25;;;9.28;;
80278;SDS011;70683;52.492;13.416;2023-08-20T08:54:24;9.13;;;7.78;;
80278;SDS011;70683;52.492;13.416;2023-08-20T08:56:52;9.60;;;8.18;;
80278;SDS011;70683;52.492;13.416;2023-08-20T08:59:19;10.05;;;7.97;;
80278;SDS011;70683;52.492;13.416;2023-08-20T09:01:46;9.05;;;6.72;;
80278;SDS011;70683;52.492;13.416;2023-08-20T09:04:13;10.80;;;6.67;;
80278;SDS011;70683;52.492;13.416;2023-08-20T09:06:44;10.50;;;7.22;;
80278;SDS011;70683;52.492;13.416;2023-08-20T09:09:14;10.32;;;6.97;;
80278;SDS011;70683;52.492;13.416;2023-08-20T09:11:42;10.13;;;7.65;;
80278;SDS011;70683;52.492;13.416;2023-08-20T09:14:43;10.45;;;7.33;;
80278;SDS011;70683;52.492;13.416;2023-08-20T09:16:56;8.45;;;6.75;;
80278;SDS011;70683;52.492;13.416;2023-08-20T09:19:24;8.75;;;6.58;;
80278;SDS011;70683;52.492;13.416;2023-08-20T09:21:58;8.63;;;6.53;;
80278;SDS011;70683;52.492;13.416;2023-08-20T09:24:26;8.78;;;6.58;;
80278;SDS011;70683;52.492;13.416;2023-08-20T09:27:02;7.50;;;6.35;;
80278;SDS011;70683;52.492;13.416;2023-08-20T09:29:32;8.65;;;6.85;;
80278;SDS011;70683;52.492;13.416;2023-08-20T09:32:00;9.63;;;7.20;;
80278;SDS011;70683;52.492;13.416;2023-08-20T09:34:35;7.70;;;5.70;;
80278;SDS011;70683;52.492;13.416;2023-08-20T09:37:03;7.75;;;5.70;;
80278;SDS011;70683;52.492;13.416;2023-08-20T09:39:30;6.95;;;5.58;;
80278;SDS011;70683;52.492;13.416;2023-08-20T09:41:57;6.92;;;5.78;;
80278;SDS011;70683;52.492;13.416;2023-08-20T09:44:25;9.05;;;5.55;;
80278;SDS011;70683;52.492;13.416;2023-08-20T09:46:56;10.30;;;6.58;;
80278;SDS011;70683;52.492;13.416;2023-08-20T09:49:23;8.40;;;6.40;;
80278;SDS011;70683;52.492;13.416;2023-08-20T09:51:53;8.35;;;4.67;;
80278;SDS011;70683;52.492;13.416;2023-08-20T09:54:27;7.50;;;5.58;;
80278;SDS011;70683;52.492;13.416;2023-08-20T09:56:56;8.93;;;5.10;;
80278;SDS011;70683;52.492;13.416;2023-08-20T09:59:26;6.28;;;5.30;;
80278;SDS011;70683;52.492;13.416;2023-08-20T10:01:53;9.95;;;5.25;;
80278;SDS011;70683;52.492;13.416;2023-08-20T10:04:22;7.03;;;4.78;;
80278;SDS011;70683;52.492;13.416;2023-08-20T10:06:50;10.53;;;4.80;;
80278;SDS011;70683;52.492;13.416;2023-08-20T10:09:20;5.00;;;4.40;;
80278;SDS011;70683;52.492;13.416;2023-08-20T10:11:48;7.78;;;3.90;;
80278;SDS011;70683;52.492;13.416;2023-08-20T10:14:14;5.28;;;3.70;;
80278;SDS011;70683;52.492;13.416;2023-08-20T10:16:42;6.22;;;4.22;;
80278;SDS011;70683;52.492;13.416;2023-08-20T10:19:10;6.50;;;3.83;;
80278;SDS011;70683;52.492;13.416;2023-08-20T10:21:40;4.30;;;3.00;;
80278;SDS011;70683;52.492;13.416;2023-08-20T10:24:07;4.85;;;3.00;;
80278;SDS011;70683;52.492;13.416;2023-08-20T10:26:34;5.15;;;3.15;;
80278;SDS011;70683;52.492;13.416;2023-08-20T10:29:34;4.90;;;3.02;;
80278;SDS011;70683;52.492;13.416;2023-08-20T10:31:51;3.12;;;2.67;;
80278;SDS011;70683;52.492;13.416;2023-08-20T10:34:37;8.13;;;3.45;;
80278;SDS011;70683;52.492;13.416;2023-08-20T10:37:10;4.42;;;2.65;;
80278;SDS011;70683;52.492;13.416;2023-08-20T10:39:38;5.90;;;2.75;;
80278;SDS011;70683;52.492;13.416;2023-08-20T10:42:21;6.12;;;3.00;;
80278;SDS011;70683;52.492;13.416;2023-08-20T10:47:24;4.22;;;2.42;;
80278;SDS011;70683;52.492;13.416;2023-08-20T10:49:52;4.10;;;2.52;;
80278;SDS011;70683;52.492;13.416;2023-08-20T10:52:20;2.83;;;2.27;;
80278;SDS011;70683;52.492;13.416;2023-08-20T10:54:49;3.87;;;2.05;;
80278;SDS011;70683;52.492;13.416;2023-08-20T10:57:17;5.25;;;2.47;;
80278;SDS011;70683;52.492;13.416;2023-08-20T11:02:23;2.90;;;2.10;;
80278;SDS011;70683;52.492;13.416;2023-08-20T11:04:52;3.85;;;2.30;;
80278;SDS011;70683;52.492;13.416;2023-08-20T11:07:19;4.33;;;2.52;;
80278;SDS011;70683;52.492;13.416;2023-08-20T11:09:46;7.47;;;2.50;;
80278;SDS011;70683;52.492;13.416;2023-08-20T11:12:15;3.80;;;2.60;;
80278;SDS011;70683;52.492;13.416;2023-08-20T11:14:42;2.40;;;2.17;;
80278;SDS011;70683;52.492;13.416;2023-08-20T11:17:08;5.22;;;2.60;;
80278;SDS011;70683;52.492;13.416;2023-08-20T11:19:35;3.17;;;2.40;;
80278;SDS011;70683;52.492;13.416;2023-08-20T11:22:02;5.15;;;2.33;;
80278;SDS011;70683;52.492;13.416;2023-08-20T11:24:29;3.90;;;2.52;;
80278;SDS011;70683;52.492;13.416;2023-08-20T11:26:56;2.98;;;2.10;;
80278;SDS011;70683;52.492;13.416;2023-08-20T11:29:22;2.95;;;2.00;;
80278;SDS011;70683;52.492;13.416;2023-08-20T11:31:51;5.53;;;2.17;;
80278;SDS011;70683;52.492;13.416;2023-08-20T11:34:18;3.20;;;2.02;;
80278;SDS011;70683;52.492;13.416;2023-08-20T11:36:45;3.45;;;2.33;;
80278;SDS011;70683;52.492;13.416;2023-08-20T11:39:13;4.00;;;2.10;;
80278;SDS011;70683;52.492;13.416;2023-08-20T11:41:40;5.75;;;2.02;;
80278;SDS011;70683;52.492;13.416;2023-08-20T11:44:08;2.50;;;1.92;;
80278;SDS011;70683;52.492;13.416;2023-08-20T11:46:41;3.85;;;2.10;;
80278;SDS011;70683;52.492;13.416;2023-08-20T11:49:10;4.58;;;2.00;;
80278;SDS011;70683;52.492;13.416;2023-08-20T11:51:38;3.37;;;2.10;;
80278;SDS011;70683;52.492;13.416;2023-08-20T11:54:12;4.60;;;2.02;;
80278;SDS011;70683;52.492;13.416;2023-08-20T11:56:43;2.47;;;1.70;;
80278;SDS011;70683;52.492;13.416;2023-08-20T11:59:12;2.40;;;1.75;;
80278;SDS011;70683;52.492;13.416;2023-08-20T12:01:39;3.80;;;1.98;;
80278;SDS011;70683;52.492;13.416;2023-08-20T12:04:07;3.45;;;1.90;;
80278;SDS011;70683;52.492;13.416;2023-08-20T12:06:35;2.90;;;1.70;;
80278;SDS011;70683;52.492;13.416;2023-08-20T12:11:41;5.90;;;2.50;;
80278;SDS011;70683;52.492;13.416;2023-08-20T12:14:12;7.05;;;2.65;;
80278;SDS011;70683;52.492;13.416;2023-08-20T12:16:39;2.90;;;1.92;;
80278;SDS011;70683;52.492;13.416;2023-08-20T12:19:05;3.17;;;1.62;;
80278;SDS011;70683;52.492;13.416;2023-08-20T12:21:32;3.95;;;2.25;;
80278;SDS011;70683;52.492;13.416;2023-08-20T12:23:59;3.70;;;2.08;;
80278;SDS011;70683;52.492;13.416;2023-08-20T12:26:25;3.58;;;2.00;;
80278;SDS011;70683;52.492;13.416;2023-08-20T12:28:52;5.17;;;2.20;;
80278;SDS011;70683;52.492;13.416;2023-08-20T12:31:20;3.05;;;1.90;;
80278;SDS011;70683;52.492;13.416;2023-08-20T12:33:47;6.67;;;1.90;;
80278;SDS011;70683;52.492;13.416;2023-08-20T12:36:13;4.58;;;1.98;;
80278;SDS011;70683;52.492;13.416;2023-08-20T12:38:40;3.02;;;1.70;;
80278;SDS011;70683;52.492;13.416;2023-08-20T12:41:07;5.05;;;1.75;;
80278;SDS011;70683;52.492;13.416;2023-08-20T12:43:34;5.10;;;1.77;;
80278;SDS011;70683;52.492;13.416;2023-08-20T12:46:00;2.62;;;2.00;;
80278;SDS011;70683;52.492;13.416;2023-08-20T12:48:29;3.22;;;1.95;;
80278;SDS011;70683;52.492;13.416;2023-08-20T12:50:56;2.77;;;1.65;;
80278;SDS011;70683;52.492;13.416;2023-08-20T12:53:23;3.40;;;1.42;;
80278;SDS011;70683;52.492;13.416;2023-08-20T12:55:49;2.92;;;1.40;;
80278;SDS011;70683;52.492;13.416;2023-08-20T12:58:16;2.70;;;1.95;;
80278;SDS011;70683;52.492;13.416;2023-08-20T13:00:43;3.55;;;1.80;;
80278;SDS011;70683;52.492;13.416;2023-08-20T13:03:10;6.12;;;1.40;;
80278;SDS011;70683;52.492;13.416;2023-08-20T13:05:37;5.70;;;2.10;;
80278;SDS011;70683;52.492;13.416;2023-08-20T13:08:04;3.77;;;2.00;;
80278;SDS011;70683;52.492;13.416;2023-08-20T13:10:32;2.33;;;1.40;;
80278;SDS011;70683;52.492;13.416;2023-08-20T13:13:00;3.62;;;1.87;;
80278;SDS011;70683;52.492;13.416;2023-08-20T13:15:27;5.30;;;2.12;;
80278;SDS011;70683;52.492;13.416;2023-08-20T13:17:55;4.28;;;1.90;;
80278;SDS011;70683;52.492;13.416;2023-08-20T13:20:22;6.45;;;1.67;;
80278;SDS011;70683;52.492;13.416;2023-08-20T13:22:51;2.17;;;1.50;;
80278;SDS011;70683;52.492;13.416;2023-08-20T13:25:19;2.52;;;1.50;;
80278;SDS011;70683;52.492;13.416;2023-08-20T13:27:47;2.70;;;1.47;;
80278;SDS011;70683;52.492;13.416;2023-08-20T13:30:14;2.25;;;1.40;;
80278;SDS011;70683;52.492;13.416;2023-08-20T13:32:40;3.12;;;1.20;;
80278;SDS011;70683;52.492;13.416;2023-08-20T13:35:07;5.80;;;1.72;;
80278;SDS011;70683;52.492;13.416;2023-08-20T13:37:34;3.77;;;2.02;;
80278;SDS011;70683;52.492;13.416;2023-08-20T13:40:00;3.00;;;1.47;;
80278;SDS011;70683;52.492;13.416;2023-08-20T13:42:30;2.90;;;1.22;;
80278;SDS011;70683;52.492;13.416;2023-08-20T13:44:57;2.50;;;1.27;;
80278;SDS011;70683;52.492;13.416;2023-08-20T13:47:23;4.58;;;1.37;;
80278;SDS011;70683;52.492;13.416;2023-08-20T13:49:50;6.25;;;1.77;;
80278;SDS011;70683;52.492;13.416;2023-08-20T13:52:16;3.15;;;1.12;;
80278;SDS011;70683;52.492;13.416;2023-08-20T13:54:43;3.47;;;1.50;;
80278;SDS011;70683;52.492;13.416;2023-08-20T13:57:10;4.12;;;1.80;;
80278;SDS011;70683;52.492;13.416;2023-08-20T13:59:36;6.70;;;1.82;;
80278;SDS011;70683;52.492;13.416;2023-08-20T14:02:04;5.22;;;1.62;;
80278;SDS011;70683;52.492;13.416;2023-08-20T14:04:31;4.58;;;1.40;;
80278;SDS011;70683;52.492;13.416;2023-08-20T14:06:58;3.95;;;1.57;;
80278;SDS011;70683;52.492;13.416;2023-08-20T14:09:24;3.83;;;1.65;;
80278;SDS011;70683;52.492;13.416;2023-08-20T14:11:51;6.55;;;1.40;;
80278;SDS011;70683;52.492;13.416;2023-08-20T14:14:17;3.52;;;1.40;;
80278;SDS011;70683;52.492;13.416;2023-08-20T14:16:44;4.55;;;1.40;;
80278;SDS011;70683;52.492;13.416;2023-08-20T14:19:11;6.40;;;2.42;;
80278;SDS011;70683;52.492;13.416;2023-08-20T14:21:37;5.10;;;1.70;;
80278;SDS011;70683;52.492;13.416;2023-08-20T14:24:04;3.08;;;1.45;;
80278;SDS011;70683;52.492;13.416;2023-08-20T14:26:31;7.60;;;1.57;;
80278;SDS011;70683;52.492;13.416;2023-08-20T14:28:58;4.12;;;1.55;;
80278;SDS011;70683;52.492;13.416;2023-08-20T14:31:25;5.00;;;1.35;;